sensor_id;sensor_type;location;lat;lon;timestamp;P1;durP1;ratioP1;P2;durP2;ratioP2
2748;SDS011;1382;52.142;11.618;2022-09-16T00:00:19;4.53;;;1.40;;
2748;SDS011;1382;52.142;11.618;2022-09-16T00:02:46;7.30;;;1.40;;
2748;SDS011;1382;52.142;11.618;2022-09-16T00:05:13;2.50;;;1.17;;
2748;SDS011;1382;52.142;11.618;2022-09-16T00:07:40;1.63;;;1.00;;
2748;SDS011;1382;52.142;11.618;2022-09-16T00:10:07;2.83;;;1.03;;
2748;SDS011;1382;52.142;11.618;2022-09-16T00:12:36;4.37;;;1.27;;
2748;SDS011;1382;52.142;11.618;2022-09-16T00:15:03;4.87;;;1.40;;
2748;SDS011;1382;52.142;11.618;2022-09-16T00:17:31;5.77;;;1.73;;
2748;SDS011;1382;52.142;11.618;2022-09-16T00:19:58;5.10;;;1.70;;
2748;SDS011;1382;52.142;11.618;2022-09-16T00:22:26;4.40;;;1.43;;
2748;SDS011;1382;52.142;11.618;2022-09-16T00:24:53;5.17;;;1.77;;
2748;SDS011;1382;52.142;11.618;2022-09-16T00:27:20;4.00;;;1.07;;
2748;SDS011;1382;52.142;11.618;2022-09-16T00:29:49;2.73;;;1.27;;
2748;SDS011;1382;52.142;11.618;2022-09-16T00:32:16;2.63;;;1.23;;
2748;SDS011;1382;52.142;11.618;2022-09-16T00:34:43;2.07;;;1.30;;
2748;SDS011;1382;52.142;11.618;2022-09-16T00:37:10;2.57;;;1.23;;
2748;SDS011;1382;52.142;11.618;2022-09-16T00:39:37;1.70;;;0.90;;
2748;SDS011;1382;52.142;11.618;2022-09-16T00:42:04;2.07;;;1.40;;
2748;SDS011;1382;52.142;11.618;2022-09-16T00:44:52;4.50;;;2.00;;
2748;SDS011;1382;52.142;11.618;2022-09-16T00:47:23;3.80;;;1.00;;
2748;SDS011;1382;52.142;11.618;2022-09-16T00:49:54;2.47;;;1.40;;
2748;SDS011;1382;52.142;11.618;2022-09-16T00:52:24;3.23;;;1.20;;
2748;SDS011;1382;52.142;11.618;2022-09-16T00:54:52;3.20;;;1.27;;
2748;SDS011;1382;52.142;11.618;2022-09-16T00:57:19;3.40;;;0.83;;
2748;SDS011;1382;52.142;11.618;2022-09-16T00:59:47;2.10;;;1.17;;
2748;SDS011;1382;52.142;11.618;2022-09-16T01:02:19;3.27;;;1.67;;
2748;SDS011;1382;52.142;11.618;2022-09-16T01:04:48;1.50;;;1.13;;
2748;SDS011;1382;52.142;11.618;2022-09-16T01:07:20;9.73;;;2.17;;
2748;SDS011;1382;52.142;11.618;2022-09-16T01:09:52;5.60;;;2.13;;
2748;SDS011;1382;52.142;11.618;2022-09-16T01:12:19;2.40;;;1.10;;
2748;SDS011;1382;52.142;11.618;2022-09-16T01:14:46;4.97;;;1.80;;
2748;SDS011;1382;52.142;11.618;2022-09-16T01:17:14;5.50;;;0.83;;
2748;SDS011;1382;52.142;11.618;2022-09-16T01:19:58;2.77;;;1.43;;
2748;SDS011;1382;52.142;11.618;2022-09-16T01:22:45;1.63;;;1.10;;
2748;SDS011;1382;52.142;11.618;2022-09-16T01:25:27;2.40;;;1.40;;
2748;SDS011;1382;52.142;11.618;2022-09-16T01:28:12;2.67;;;0.90;;
2748;SDS011;1382;52.142;11.618;2022-09-16T01:30:56;6.83;;;1.83;;
2748;SDS011;1382;52.142;11.618;2022-09-16T01:33:30;2.70;;;1.17;;
2748;SDS011;1382;52.142;11.618;2022-09-16T01:36:09;2.00;;;1.00;;
2748;SDS011;1382;52.142;11.618;2022-09-16T01:38:52;2.20;;;0.97;;
2748;SDS011;1382;52.142;11.618;2022-09-16T01:41:26;2.50;;;1.00;;
2748;SDS011;1382;52.142;11.618;2022-09-16T01:44:05;4.07;;;1.00;;
2748;SDS011;1382;52.142;11.618;2022-09-16T01:46:42;6.17;;;1.20;;
2748;SDS011;1382;52.142;11.618;2022-09-16T01:49:15;2.30;;;0.70;;
2748;SDS011;1382;52.142;11.618;2022-09-16T01:51:49;3.97;;;1.00;;
2748;SDS011;1382;52.142;11.618;2022-09-16T01:54:25;1.73;;;1.00;;
2748;SDS011;1382;52.142;11.618;2022-09-16T01:56:59;2.27;;;0.97;;
2748;SDS011;1382;52.142;11.618;2022-09-16T01:59:30;2.30;;;0.93;;
2748;SDS011;1382;52.142;11.618;2022-09-16T02:02:05;5.17;;;1.00;;
2748;SDS011;1382;52.142;11.618;2022-09-16T02:04:39;2.40;;;1.07;;
2748;SDS011;1382;52.142;11.618;2022-09-16T02:07:11;3.43;;;1.00;;
2748;SDS011;1382;52.142;11.618;2022-09-16T02:09:42;3.23;;;0.87;;
2748;SDS011;1382;52.142;11.618;2022-09-16T02:12:16;2.50;;;1.00;;
2748;SDS011;1382;52.142;11.618;2022-09-16T02:14:47;1.30;;;0.83;;
2748;SDS011;1382;52.142;11.618;2022-09-16T02:17:17;2.87;;;1.20;;
2748;SDS011;1382;52.142;11.618;2022-09-16T02:19:47;2.07;;;0.80;;
2748;SDS011;1382;52.142;11.618;2022-09-16T02:22:21;1.57;;;1.07;;
2748;SDS011;1382;52.142;11.618;2022-09-16T02:24:52;2.57;;;1.23;;
2748;SDS011;1382;52.142;11.618;2022-09-16T02:27:20;1.20;;;1.00;;
2748;SDS011;1382;52.142;11.618;2022-09-16T02:29:49;2.90;;;1.30;;
2748;SDS011;1382;52.142;11.618;2022-09-16T02:32:21;2.80;;;1.33;;
2748;SDS011;1382;52.142;11.618;2022-09-16T02:34:51;2.80;;;1.17;;
2748;SDS011;1382;52.142;11.618;2022-09-16T02:37:19;1.77;;;1.00;;
2748;SDS011;1382;52.142;11.618;2022-09-16T02:39:51;5.87;;;1.30;;
2748;SDS011;1382;52.142;11.618;2022-09-16T02:42:21;4.63;;;1.30;;
2748;SDS011;1382;52.142;11.618;2022-09-16T02:44:48;2.10;;;1.37;;
2748;SDS011;1382;52.142;11.618;2022-09-16T02:47:16;3.10;;;1.07;;
2748;SDS011;1382;52.142;11.618;2022-09-16T02:49:53;2.27;;;1.03;;
2748;SDS011;1382;52.142;11.618;2022-09-16T02:52:23;2.70;;;1.00;;
2748;SDS011;1382;52.142;11.618;2022-09-16T02:54:59;1.90;;;1.10;;
2748;SDS011;1382;52.142;11.618;2022-09-16T02:57:30;4.03;;;1.60;;
2748;SDS011;1382;52.142;11.618;2022-09-16T02:59:57;5.50;;;1.33;;
2748;SDS011;1382;52.142;11.618;2022-09-16T03:02:26;3.87;;;1.20;;
2748;SDS011;1382;52.142;11.618;2022-09-16T03:04:53;5.03;;;1.50;;
2748;SDS011;1382;52.142;11.618;2022-09-16T03:07:20;2.67;;;1.50;;
2748;SDS011;1382;52.142;11.618;2022-09-16T03:09:47;4.10;;;2.03;;
2748;SDS011;1382;52.142;11.618;2022-09-16T03:12:18;2.50;;;1.37;;
2748;SDS011;1382;52.142;11.618;2022-09-16T03:15:00;6.43;;;1.67;;
2748;SDS011;1382;52.142;11.618;2022-09-16T03:17:53;3.90;;;1.50;;
2748;SDS011;1382;52.142;11.618;2022-09-16T03:20:34;3.13;;;2.17;;
2748;SDS011;1382;52.142;11.618;2022-09-16T03:23:10;2.60;;;1.40;;
2748;SDS011;1382;52.142;11.618;2022-09-16T03:25:45;4.30;;;1.70;;
2748;SDS011;1382;52.142;11.618;2022-09-16T03:28:19;4.23;;;1.60;;
2748;SDS011;1382;52.142;11.618;2022-09-16T03:30:51;3.10;;;1.23;;
2748;SDS011;1382;52.142;11.618;2022-09-16T03:33:26;1.80;;;0.93;;
2748;SDS011;1382;52.142;11.618;2022-09-16T03:35:59;2.13;;;1.40;;
2748;SDS011;1382;52.142;11.618;2022-09-16T03:38:30;3.83;;;1.30;;
2748;SDS011;1382;52.142;11.618;2022-09-16T03:40:59;4.33;;;1.33;;
2748;SDS011;1382;52.142;11.618;2022-09-16T03:43:27;3.83;;;1.33;;
2748;SDS011;1382;52.142;11.618;2022-09-16T03:45:54;5.93;;;1.43;;
2748;SDS011;1382;52.142;11.618;2022-09-16T03:48:21;3.47;;;1.23;;
2748;SDS011;1382;52.142;11.618;2022-09-16T03:50:50;5.17;;;1.33;;
2748;SDS011;1382;52.142;11.618;2022-09-16T03:53:17;1.60;;;1.50;;
2748;SDS011;1382;52.142;11.618;2022-09-16T03:55:43;1.83;;;1.30;;
2748;SDS011;1382;52.142;11.618;2022-09-16T03:58:10;6.73;;;1.63;;
2748;SDS011;1382;52.142;11.618;2022-09-16T04:00:37;4.87;;;1.10;;
2748;SDS011;1382;52.142;11.618;2022-09-16T04:03:04;3.40;;;1.20;;
2748;SDS011;1382;52.142;11.618;2022-09-16T04:05:31;3.17;;;2.23;;
2748;SDS011;1382;52.142;11.618;2022-09-16T04:07:59;5.07;;;2.07;;
2748;SDS011;1382;52.142;11.618;2022-09-16T04:10:26;2.20;;;1.00;;
2748;SDS011;1382;52.142;11.618;2022-09-16T04:12:55;5.40;;;1.60;;
2748;SDS011;1382;52.142;11.618;2022-09-16T04:15:22;3.90;;;1.20;;
2748;SDS011;1382;52.142;11.618;2022-09-16T04:17:49;2.50;;;1.50;;
2748;SDS011;1382;52.142;11.618;2022-09-16T04:20:16;3.93;;;1.20;;
2748;SDS011;1382;52.142;11.618;2022-09-16T04:22:43;5.23;;;1.77;;
2748;SDS011;1382;52.142;11.618;2022-09-16T04:25:11;4.40;;;1.33;;
2748;SDS011;1382;52.142;11.618;2022-09-16T04:27:38;3.23;;;1.30;;
2748;SDS011;1382;52.142;11.618;2022-09-16T04:30:05;5.10;;;1.33;;
2748;SDS011;1382;52.142;11.618;2022-09-16T04:32:33;4.77;;;1.53;;
2748;SDS011;1382;52.142;11.618;2022-09-16T04:35:00;5.53;;;2.00;;
2748;SDS011;1382;52.142;11.618;2022-09-16T04:37:28;5.10;;;1.97;;
2748;SDS011;1382;52.142;11.618;2022-09-16T04:39:55;2.80;;;1.30;;
2748;SDS011;1382;52.142;11.618;2022-09-16T04:42:30;2.10;;;1.30;;
2748;SDS011;1382;52.142;11.618;2022-09-16T04:44:57;2.00;;;1.17;;
2748;SDS011;1382;52.142;11.618;2022-09-16T04:47:23;2.07;;;1.20;;
2748;SDS011;1382;52.142;11.618;2022-09-16T04:49:50;6.13;;;1.57;;
2748;SDS011;1382;52.142;11.618;2022-09-16T04:52:17;6.80;;;1.47;;
2748;SDS011;1382;52.142;11.618;2022-09-16T04:54:44;1.50;;;1.20;;
2748;SDS011;1382;52.142;11.618;2022-09-16T04:57:11;3.63;;;1.73;;
2748;SDS011;1382;52.142;11.618;2022-09-16T04:59:39;3.33;;;1.37;;
2748;SDS011;1382;52.142;11.618;2022-09-16T05:02:06;2.77;;;1.50;;
2748;SDS011;1382;52.142;11.618;2022-09-16T05:04:33;9.17;;;1.67;;
2748;SDS011;1382;52.142;11.618;2022-09-16T05:07:00;3.90;;;1.47;;
2748;SDS011;1382;52.142;11.618;2022-09-16T05:09:27;4.67;;;1.93;;
2748;SDS011;1382;52.142;11.618;2022-09-16T05:11:54;13.10;;;2.53;;
2748;SDS011;1382;52.142;11.618;2022-09-16T05:14:21;3.90;;;1.70;;
2748;SDS011;1382;52.142;11.618;2022-09-16T05:16:49;3.50;;;2.37;;
2748;SDS011;1382;52.142;11.618;2022-09-16T05:19:16;2.20;;;1.23;;
2748;SDS011;1382;52.142;11.618;2022-09-16T05:21:43;5.87;;;1.70;;
2748;SDS011;1382;52.142;11.618;2022-09-16T05:24:10;3.60;;;1.63;;
2748;SDS011;1382;52.142;11.618;2022-09-16T05:26:39;4.00;;;1.73;;
2748;SDS011;1382;52.142;11.618;2022-09-16T05:29:07;4.30;;;2.30;;
2748;SDS011;1382;52.142;11.618;2022-09-16T05:31:37;5.73;;;2.20;;
2748;SDS011;1382;52.142;11.618;2022-09-16T05:34:09;5.30;;;2.67;;
2748;SDS011;1382;52.142;11.618;2022-09-16T05:36:37;4.07;;;2.33;;
2748;SDS011;1382;52.142;11.618;2022-09-16T05:39:04;6.50;;;2.07;;
2748;SDS011;1382;52.142;11.618;2022-09-16T05:41:51;7.43;;;1.97;;
2748;SDS011;1382;52.142;11.618;2022-09-16T05:44:19;5.83;;;2.33;;
2748;SDS011;1382;52.142;11.618;2022-09-16T05:46:46;3.33;;;2.40;;
2748;SDS011;1382;52.142;11.618;2022-09-16T05:49:14;7.53;;;2.20;;
2748;SDS011;1382;52.142;11.618;2022-09-16T05:51:41;5.07;;;2.40;;
2748;SDS011;1382;52.142;11.618;2022-09-16T05:54:08;3.60;;;2.20;;
2748;SDS011;1382;52.142;11.618;2022-09-16T05:56:34;10.73;;;2.53;;
2748;SDS011;1382;52.142;11.618;2022-09-16T05:59:01;2.60;;;1.80;;
2748;SDS011;1382;52.142;11.618;2022-09-16T06:01:29;3.40;;;1.70;;
2748;SDS011;1382;52.142;11.618;2022-09-16T06:03:56;5.27;;;2.20;;
2748;SDS011;1382;52.142;11.618;2022-09-16T06:06:27;4.17;;;2.40;;
2748;SDS011;1382;52.142;11.618;2022-09-16T06:08:55;3.63;;;2.10;;
2748;SDS011;1382;52.142;11.618;2022-09-16T06:11:24;6.97;;;2.20;;
2748;SDS011;1382;52.142;11.618;2022-09-16T06:13:52;5.03;;;2.27;;
2748;SDS011;1382;52.142;11.618;2022-09-16T06:16:22;2.20;;;2.00;;
2748;SDS011;1382;52.142;11.618;2022-09-16T06:18:50;6.13;;;1.83;;
2748;SDS011;1382;52.142;11.618;2022-09-16T06:21:17;3.87;;;2.00;;
2748;SDS011;1382;52.142;11.618;2022-09-16T06:23:46;2.47;;;1.87;;
2748;SDS011;1382;52.142;11.618;2022-09-16T06:26:13;2.87;;;1.63;;
2748;SDS011;1382;52.142;11.618;2022-09-16T06:28:41;1.93;;;1.73;;
2748;SDS011;1382;52.142;11.618;2022-09-16T06:31:09;2.03;;;1.83;;
2748;SDS011;1382;52.142;11.618;2022-09-16T06:33:37;4.33;;;2.17;;
2748;SDS011;1382;52.142;11.618;2022-09-16T06:36:05;3.33;;;2.00;;
2748;SDS011;1382;52.142;11.618;2022-09-16T06:38:34;2.80;;;1.83;;
2748;SDS011;1382;52.142;11.618;2022-09-16T06:41:03;4.97;;;2.67;;
2748;SDS011;1382;52.142;11.618;2022-09-16T06:43:32;3.13;;;1.97;;
2748;SDS011;1382;52.142;11.618;2022-09-16T06:46:00;4.43;;;1.90;;
2748;SDS011;1382;52.142;11.618;2022-09-16T06:48:28;3.30;;;2.17;;
2748;SDS011;1382;52.142;11.618;2022-09-16T06:50:58;3.67;;;1.90;;
2748;SDS011;1382;52.142;11.618;2022-09-16T06:53:26;2.73;;;2.53;;
2748;SDS011;1382;52.142;11.618;2022-09-16T06:55:53;2.40;;;2.13;;
2748;SDS011;1382;52.142;11.618;2022-09-16T06:58:22;5.83;;;2.33;;
2748;SDS011;1382;52.142;11.618;2022-09-16T07:00:48;5.77;;;2.10;;
2748;SDS011;1382;52.142;11.618;2022-09-16T07:03:15;3.67;;;2.07;;
2748;SDS011;1382;52.142;11.618;2022-09-16T07:05:42;8.67;;;2.50;;
2748;SDS011;1382;52.142;11.618;2022-09-16T07:08:09;4.03;;;2.40;;
2748;SDS011;1382;52.142;11.618;2022-09-16T07:10:36;5.87;;;2.43;;
2748;SDS011;1382;52.142;11.618;2022-09-16T07:13:03;7.03;;;2.40;;
2748;SDS011;1382;52.142;11.618;2022-09-16T07:15:31;4.23;;;1.80;;
2748;SDS011;1382;52.142;11.618;2022-09-16T07:17:58;2.77;;;2.50;;
2748;SDS011;1382;52.142;11.618;2022-09-16T07:20:24;6.93;;;2.60;;
2748;SDS011;1382;52.142;11.618;2022-09-16T07:22:51;3.97;;;2.20;;
2748;SDS011;1382;52.142;11.618;2022-09-16T07:25:18;3.67;;;2.03;;
2748;SDS011;1382;52.142;11.618;2022-09-16T07:27:45;5.40;;;2.87;;
2748;SDS011;1382;52.142;11.618;2022-09-16T07:30:12;3.57;;;2.40;;
2748;SDS011;1382;52.142;11.618;2022-09-16T07:32:40;4.20;;;2.30;;
2748;SDS011;1382;52.142;11.618;2022-09-16T07:35:07;3.60;;;2.07;;
2748;SDS011;1382;52.142;11.618;2022-09-16T07:37:34;3.27;;;1.87;;
2748;SDS011;1382;52.142;11.618;2022-09-16T07:40:07;3.00;;;2.00;;
2748;SDS011;1382;52.142;11.618;2022-09-16T07:42:35;6.70;;;1.60;;
2748;SDS011;1382;52.142;11.618;2022-09-16T07:45:02;4.23;;;1.60;;
2748;SDS011;1382;52.142;11.618;2022-09-16T07:47:29;2.70;;;1.50;;
2748;SDS011;1382;52.142;11.618;2022-09-16T07:49:57;2.90;;;1.63;;
2748;SDS011;1382;52.142;11.618;2022-09-16T07:52:24;2.20;;;1.77;;
2748;SDS011;1382;52.142;11.618;2022-09-16T07:54:51;2.43;;;1.50;;
2748;SDS011;1382;52.142;11.618;2022-09-16T07:57:18;3.60;;;1.40;;
2748;SDS011;1382;52.142;11.618;2022-09-16T07:59:45;1.83;;;1.47;;
2748;SDS011;1382;52.142;11.618;2022-09-16T08:02:12;4.43;;;1.60;;
2748;SDS011;1382;52.142;11.618;2022-09-16T08:04:40;3.33;;;1.57;;
2748;SDS011;1382;52.142;11.618;2022-09-16T08:07:08;5.23;;;1.50;;
2748;SDS011;1382;52.142;11.618;2022-09-16T08:09:35;4.10;;;1.70;;
2748;SDS011;1382;52.142;11.618;2022-09-16T08:12:08;2.43;;;1.50;;
2748;SDS011;1382;52.142;11.618;2022-09-16T08:14:35;2.10;;;1.17;;
2748;SDS011;1382;52.142;11.618;2022-09-16T08:17:02;4.20;;;1.27;;
2748;SDS011;1382;52.142;11.618;2022-09-16T08:19:29;5.93;;;1.77;;
2748;SDS011;1382;52.142;11.618;2022-09-16T08:21:56;2.37;;;1.07;;
2748;SDS011;1382;52.142;11.618;2022-09-16T08:24:24;3.97;;;1.60;;
2748;SDS011;1382;52.142;11.618;2022-09-16T08:26:51;2.37;;;1.00;;
2748;SDS011;1382;52.142;11.618;2022-09-16T08:29:17;6.00;;;1.33;;
2748;SDS011;1382;52.142;11.618;2022-09-16T08:31:44;3.20;;;1.00;;
2748;SDS011;1382;52.142;11.618;2022-09-16T08:34:11;3.70;;;1.17;;
2748;SDS011;1382;52.142;11.618;2022-09-16T08:36:38;3.97;;;1.03;;
2748;SDS011;1382;52.142;11.618;2022-09-16T08:39:05;5.33;;;1.53;;
2748;SDS011;1382;52.142;11.618;2022-09-16T08:41:38;2.47;;;1.20;;
2748;SDS011;1382;52.142;11.618;2022-09-16T08:44:15;3.27;;;0.97;;
2748;SDS011;1382;52.142;11.618;2022-09-16T08:46:50;3.97;;;1.43;;
2748;SDS011;1382;52.142;11.618;2022-09-16T08:49:20;4.47;;;1.30;;
2748;SDS011;1382;52.142;11.618;2022-09-16T08:51:52;3.30;;;1.13;;
2748;SDS011;1382;52.142;11.618;2022-09-16T08:54:23;6.00;;;1.03;;
2748;SDS011;1382;52.142;11.618;2022-09-16T08:56:56;5.33;;;1.57;;
2748;SDS011;1382;52.142;11.618;2022-09-16T08:59:27;3.03;;;1.17;;
2748;SDS011;1382;52.142;11.618;2022-09-16T09:02:00;1.30;;;0.70;;
2748;SDS011;1382;52.142;11.618;2022-09-16T09:04:37;2.00;;;1.10;;
2748;SDS011;1382;52.142;11.618;2022-09-16T09:07:05;2.10;;;0.80;;
2748;SDS011;1382;52.142;11.618;2022-09-16T09:09:45;3.23;;;1.10;;
2748;SDS011;1382;52.142;11.618;2022-09-16T09:12:22;1.97;;;0.93;;
2748;SDS011;1382;52.142;11.618;2022-09-16T09:14:59;4.60;;;1.23;;
2748;SDS011;1382;52.142;11.618;2022-09-16T09:17:40;6.73;;;1.53;;
2748;SDS011;1382;52.142;11.618;2022-09-16T09:20:20;4.50;;;1.43;;
2748;SDS011;1382;52.142;11.618;2022-09-16T09:22:58;2.17;;;1.00;;
2748;SDS011;1382;52.142;11.618;2022-09-16T09:25:38;5.27;;;1.20;;
2748;SDS011;1382;52.142;11.618;2022-09-16T09:28:17;4.87;;;1.37;;
2748;SDS011;1382;52.142;11.618;2022-09-16T09:31:03;4.97;;;1.13;;
2748;SDS011;1382;52.142;11.618;2022-09-16T09:33:37;3.77;;;1.20;;
2748;SDS011;1382;52.142;11.618;2022-09-16T09:36:29;4.60;;;1.37;;
2748;SDS011;1382;52.142;11.618;2022-09-16T09:39:17;4.03;;;0.80;;
2748;SDS011;1382;52.142;11.618;2022-09-16T09:41:53;4.30;;;1.10;;
2748;SDS011;1382;52.142;11.618;2022-09-16T09:44:28;7.17;;;1.23;;
2748;SDS011;1382;52.142;11.618;2022-09-16T09:47:08;12.47;;;1.20;;
2748;SDS011;1382;52.142;11.618;2022-09-16T09:49:40;6.60;;;1.60;;
2748;SDS011;1382;52.142;11.618;2022-09-16T09:52:11;8.53;;;1.43;;
2748;SDS011;1382;52.142;11.618;2022-09-16T09:54:42;6.03;;;1.00;;
2748;SDS011;1382;52.142;11.618;2022-09-16T09:57:12;6.33;;;1.30;;
2748;SDS011;1382;52.142;11.618;2022-09-16T09:59:46;9.87;;;1.00;;
2748;SDS011;1382;52.142;11.618;2022-09-16T10:02:16;7.10;;;1.37;;
2748;SDS011;1382;52.142;11.618;2022-09-16T10:04:45;4.00;;;1.00;;
2748;SDS011;1382;52.142;11.618;2022-09-16T10:07:12;6.77;;;1.43;;
2748;SDS011;1382;52.142;11.618;2022-09-16T10:09:45;2.77;;;0.80;;
2748;SDS011;1382;52.142;11.618;2022-09-16T10:12:24;6.80;;;1.17;;
2748;SDS011;1382;52.142;11.618;2022-09-16T10:14:54;4.30;;;1.80;;
2748;SDS011;1382;52.142;11.618;2022-09-16T10:17:21;6.27;;;1.20;;
2748;SDS011;1382;52.142;11.618;2022-09-16T10:19:49;9.13;;;1.23;;
2748;SDS011;1382;52.142;11.618;2022-09-16T10:22:18;5.00;;;1.00;;
2748;SDS011;1382;52.142;11.618;2022-09-16T10:24:51;7.27;;;1.50;;
2748;SDS011;1382;52.142;11.618;2022-09-16T10:27:20;4.07;;;1.10;;
2748;SDS011;1382;52.142;11.618;2022-09-16T10:30:02;4.13;;;1.43;;
2748;SDS011;1382;52.142;11.618;2022-09-16T10:32:39;5.17;;;1.30;;
2748;SDS011;1382;52.142;11.618;2022-09-16T10:35:14;5.70;;;1.10;;
2748;SDS011;1382;52.142;11.618;2022-09-16T10:37:50;4.90;;;1.00;;
2748;SDS011;1382;52.142;11.618;2022-09-16T10:40:18;3.10;;;1.00;;
2748;SDS011;1382;52.142;11.618;2022-09-16T10:42:46;9.13;;;1.20;;
2748;SDS011;1382;52.142;11.618;2022-09-16T10:45:15;3.87;;;1.07;;
2748;SDS011;1382;52.142;11.618;2022-09-16T10:47:49;6.83;;;1.03;;
2748;SDS011;1382;52.142;11.618;2022-09-16T10:50:18;9.97;;;2.60;;
2748;SDS011;1382;52.142;11.618;2022-09-16T10:52:46;6.43;;;1.57;;
2748;SDS011;1382;52.142;11.618;2022-09-16T10:55:19;5.50;;;1.60;;
2748;SDS011;1382;52.142;11.618;2022-09-16T10:57:53;5.30;;;1.30;;
2748;SDS011;1382;52.142;11.618;2022-09-16T11:00:33;4.30;;;0.93;;
2748;SDS011;1382;52.142;11.618;2022-09-16T11:06:06;4.30;;;0.87;;
2748;SDS011;1382;52.142;11.618;2022-09-16T11:08:45;4.00;;;1.10;;
2748;SDS011;1382;52.142;11.618;2022-09-16T11:11:26;5.87;;;1.20;;
2748;SDS011;1382;52.142;11.618;2022-09-16T11:14:10;5.43;;;1.30;;
2748;SDS011;1382;52.142;11.618;2022-09-16T11:16:50;7.57;;;1.03;;
2748;SDS011;1382;52.142;11.618;2022-09-16T11:19:28;4.50;;;1.43;;
2748;SDS011;1382;52.142;11.618;2022-09-16T11:22:07;3.87;;;0.90;;
2748;SDS011;1382;52.142;11.618;2022-09-16T11:24:49;4.53;;;1.00;;
2748;SDS011;1382;52.142;11.618;2022-09-16T11:27:28;2.53;;;1.10;;
2748;SDS011;1382;52.142;11.618;2022-09-16T11:30:07;2.43;;;0.80;;
2748;SDS011;1382;52.142;11.618;2022-09-16T11:32:45;6.73;;;1.00;;
2748;SDS011;1382;52.142;11.618;2022-09-16T11:38:28;4.53;;;1.03;;
2748;SDS011;1382;52.142;11.618;2022-09-16T11:41:07;8.93;;;1.23;;
2748;SDS011;1382;52.142;11.618;2022-09-16T11:43:43;6.23;;;1.10;;
2748;SDS011;1382;52.142;11.618;2022-09-16T11:46:26;3.17;;;1.20;;
2748;SDS011;1382;52.142;11.618;2022-09-16T11:49:20;4.63;;;0.87;;
2748;SDS011;1382;52.142;11.618;2022-09-16T11:52:01;10.20;;;1.37;;
2748;SDS011;1382;52.142;11.618;2022-09-16T11:54:42;7.87;;;1.40;;
2748;SDS011;1382;52.142;11.618;2022-09-16T11:57:33;6.60;;;1.37;;
2748;SDS011;1382;52.142;11.618;2022-09-16T12:00:04;1.80;;;0.83;;
2748;SDS011;1382;52.142;11.618;2022-09-16T12:02:34;2.60;;;1.10;;
2748;SDS011;1382;52.142;11.618;2022-09-16T12:05:10;3.63;;;0.77;;
2748;SDS011;1382;52.142;11.618;2022-09-16T12:07:43;3.60;;;0.70;;
2748;SDS011;1382;52.142;11.618;2022-09-16T12:10:16;5.63;;;1.00;;
2748;SDS011;1382;52.142;11.618;2022-09-16T12:12:48;3.37;;;0.90;;
2748;SDS011;1382;52.142;11.618;2022-09-16T12:15:19;2.70;;;1.03;;
2748;SDS011;1382;52.142;11.618;2022-09-16T12:17:50;5.33;;;0.70;;
2748;SDS011;1382;52.142;11.618;2022-09-16T12:20:22;1.87;;;0.90;;
2748;SDS011;1382;52.142;11.618;2022-09-16T12:22:53;2.40;;;1.27;;
2748;SDS011;1382;52.142;11.618;2022-09-16T12:25:27;5.23;;;1.27;;
2748;SDS011;1382;52.142;11.618;2022-09-16T12:27:59;4.03;;;0.70;;
2748;SDS011;1382;52.142;11.618;2022-09-16T12:30:29;2.70;;;1.10;;
2748;SDS011;1382;52.142;11.618;2022-09-16T12:33:03;7.00;;;0.83;;
2748;SDS011;1382;52.142;11.618;2022-09-16T12:35:36;3.13;;;1.20;;
2748;SDS011;1382;52.142;11.618;2022-09-16T12:38:07;4.20;;;1.00;;
2748;SDS011;1382;52.142;11.618;2022-09-16T12:40:43;4.63;;;1.10;;
2748;SDS011;1382;52.142;11.618;2022-09-16T12:43:37;3.63;;;0.87;;
2748;SDS011;1382;52.142;11.618;2022-09-16T12:46:31;3.73;;;1.60;;
2748;SDS011;1382;52.142;11.618;2022-09-16T12:52:39;4.20;;;1.10;;
2748;SDS011;1382;52.142;11.618;2022-09-16T12:55:34;8.03;;;1.00;;
2748;SDS011;1382;52.142;11.618;2022-09-16T12:58:27;1.80;;;0.70;;
2748;SDS011;1382;52.142;11.618;2022-09-16T13:01:15;9.30;;;1.17;;
2748;SDS011;1382;52.142;11.618;2022-09-16T13:03:46;9.50;;;1.57;;
2748;SDS011;1382;52.142;11.618;2022-09-16T13:06:18;4.70;;;1.00;;
2748;SDS011;1382;52.142;11.618;2022-09-16T13:08:50;3.37;;;1.10;;
2748;SDS011;1382;52.142;11.618;2022-09-16T13:11:19;5.70;;;1.63;;
2748;SDS011;1382;52.142;11.618;2022-09-16T13:14:13;4.40;;;1.13;;
2748;SDS011;1382;52.142;11.618;2022-09-16T13:16:51;3.77;;;1.30;;
2748;SDS011;1382;52.142;11.618;2022-09-16T13:19:24;2.97;;;1.00;;
2748;SDS011;1382;52.142;11.618;2022-09-16T13:22:03;2.80;;;1.23;;
2748;SDS011;1382;52.142;11.618;2022-09-16T13:24:52;3.73;;;0.97;;
2748;SDS011;1382;52.142;11.618;2022-09-16T13:27:30;3.77;;;1.27;;
2748;SDS011;1382;52.142;11.618;2022-09-16T13:30:11;3.70;;;1.03;;
2748;SDS011;1382;52.142;11.618;2022-09-16T13:32:43;3.70;;;0.87;;
2748;SDS011;1382;52.142;11.618;2022-09-16T13:35:23;3.53;;;0.83;;
2748;SDS011;1382;52.142;11.618;2022-09-16T13:38:10;8.90;;;1.20;;
2748;SDS011;1382;52.142;11.618;2022-09-16T13:40:55;5.30;;;1.03;;
2748;SDS011;1382;52.142;11.618;2022-09-16T13:43:33;2.00;;;0.90;;
2748;SDS011;1382;52.142;11.618;2022-09-16T13:46:05;2.93;;;0.97;;
2748;SDS011;1382;52.142;11.618;2022-09-16T13:48:35;2.17;;;0.80;;
2748;SDS011;1382;52.142;11.618;2022-09-16T13:51:08;3.77;;;1.73;;
2748;SDS011;1382;52.142;11.618;2022-09-16T13:53:43;3.40;;;1.00;;
2748;SDS011;1382;52.142;11.618;2022-09-16T13:56:18;4.67;;;1.00;;
2748;SDS011;1382;52.142;11.618;2022-09-16T13:58:55;4.00;;;1.37;;
2748;SDS011;1382;52.142;11.618;2022-09-16T14:01:30;5.10;;;1.40;;
2748;SDS011;1382;52.142;11.618;2022-09-16T14:04:26;5.37;;;1.20;;
2748;SDS011;1382;52.142;11.618;2022-09-16T14:07:09;10.60;;;1.60;;
2748;SDS011;1382;52.142;11.618;2022-09-16T14:09:49;11.47;;;1.03;;
2748;SDS011;1382;52.142;11.618;2022-09-16T14:12:23;6.43;;;0.90;;
2748;SDS011;1382;52.142;11.618;2022-09-16T14:14:57;3.40;;;0.73;;
2748;SDS011;1382;52.142;11.618;2022-09-16T14:17:26;2.37;;;0.90;;
2748;SDS011;1382;52.142;11.618;2022-09-16T14:19:59;6.60;;;1.20;;
2748;SDS011;1382;52.142;11.618;2022-09-16T14:22:27;2.40;;;1.20;;
2748;SDS011;1382;52.142;11.618;2022-09-16T14:24:54;5.03;;;0.93;;
2748;SDS011;1382;52.142;11.618;2022-09-16T14:27:42;5.53;;;0.93;;
2748;SDS011;1382;52.142;11.618;2022-09-16T14:30:13;2.63;;;0.93;;
2748;SDS011;1382;52.142;11.618;2022-09-16T14:32:41;3.43;;;1.30;;
2748;SDS011;1382;52.142;11.618;2022-09-16T14:35:10;1.67;;;0.90;;
2748;SDS011;1382;52.142;11.618;2022-09-16T14:37:43;5.57;;;1.00;;
2748;SDS011;1382;52.142;11.618;2022-09-16T14:40:12;5.70;;;1.27;;
2748;SDS011;1382;52.142;11.618;2022-09-16T14:42:44;6.20;;;1.40;;
2748;SDS011;1382;52.142;11.618;2022-09-16T14:45:14;5.27;;;1.20;;
2748;SDS011;1382;52.142;11.618;2022-09-16T14:47:42;6.37;;;1.20;;
2748;SDS011;1382;52.142;11.618;2022-09-16T14:50:18;7.07;;;1.00;;
2748;SDS011;1382;52.142;11.618;2022-09-16T14:52:52;5.27;;;0.90;;
2748;SDS011;1382;52.142;11.618;2022-09-16T14:55:20;5.10;;;1.40;;
2748;SDS011;1382;52.142;11.618;2022-09-16T14:57:51;6.50;;;1.50;;
2748;SDS011;1382;52.142;11.618;2022-09-16T15:00:23;7.70;;;1.70;;
2748;SDS011;1382;52.142;11.618;2022-09-16T15:02:53;5.13;;;1.30;;
2748;SDS011;1382;52.142;11.618;2022-09-16T15:05:24;3.30;;;0.90;;
2748;SDS011;1382;52.142;11.618;2022-09-16T15:08:00;5.40;;;1.13;;
2748;SDS011;1382;52.142;11.618;2022-09-16T15:10:39;5.30;;;1.20;;
2748;SDS011;1382;52.142;11.618;2022-09-16T15:13:19;3.93;;;1.00;;
2748;SDS011;1382;52.142;11.618;2022-09-16T15:15:49;1.53;;;0.77;;
2748;SDS011;1382;52.142;11.618;2022-09-16T15:18:21;2.77;;;0.80;;
2748;SDS011;1382;52.142;11.618;2022-09-16T15:20:50;3.03;;;0.90;;
2748;SDS011;1382;52.142;11.618;2022-09-16T15:23:22;4.77;;;0.80;;
2748;SDS011;1382;52.142;11.618;2022-09-16T15:25:51;2.87;;;1.30;;
2748;SDS011;1382;52.142;11.618;2022-09-16T15:28:22;4.00;;;1.30;;
2748;SDS011;1382;52.142;11.618;2022-09-16T15:30:50;2.90;;;1.27;;
2748;SDS011;1382;52.142;11.618;2022-09-16T15:33:21;3.07;;;0.83;;
2748;SDS011;1382;52.142;11.618;2022-09-16T15:35:50;2.43;;;0.70;;
2748;SDS011;1382;52.142;11.618;2022-09-16T15:38:19;4.83;;;1.40;;